createdAt,value
2023-02-12T07:48:15.266Z,7932
2023-02-12T07:49:15.577Z,7572
2023-02-12T07:50:15.788Z,7388
2023-02-12T07:51:16.329Z,7224
2023-02-12T07:52:19.440Z,6780
2023-02-12T07:53:17.398Z,6256
2023-02-12T07:54:18.703Z,6340
2023-02-12T07:55:18.912Z,6260
2023-02-12T07:56:18.688Z,5920
2023-02-12T07:57:20.210Z,4748
2023-02-12T07:58:20.422Z,1480
2023-02-12T07:59:20.379Z,1292
2023-02-12T08:00:21.601Z,1292
2023-02-12T08:01:21.280Z,1288
2023-02-12T08:02:22.469Z,1620
2023-02-12T08:03:23.782Z,2428
2023-02-12T08:04:24.370Z,6184
2023-02-12T08:05:25.005Z,6324
2023-02-12T08:06:25.464Z,6316
2023-02-12T08:07:25.814Z,5788
2023-02-12T08:08:27.034Z,3316
2023-02-12T08:09:27.201Z,2972
2023-02-12T08:10:31.389Z,4364
2023-02-12T08:11:28.178Z,1968
2023-02-12T08:12:29.099Z,1252
2023-02-12T08:13:29.933Z,1244
2023-02-12T08:14:30.885Z,1184
2023-02-12T08:15:30.810Z,1236
2023-02-12T08:16:31.665Z,1228
2023-02-12T08:17:32.023Z,1344
2023-02-12T08:18:33.062Z,1456
2023-02-12T08:19:37.491Z,1588
2023-02-12T08:20:34.082Z,1944
2023-02-12T08:21:34.019Z,1980
2023-02-12T08:22:33.969Z,3580
2023-02-12T08:23:35.462Z,4640
2023-02-12T08:24:35.115Z,7336
2023-02-12T08:25:36.341Z,5176
2023-02-12T08:26:37.360Z,3628
2023-02-12T08:27:37.583Z,6300
2023-02-12T08:28:38.060Z,4496
2023-02-12T08:29:38.273Z,5160
2023-02-12T08:30:39.350Z,4416
2023-02-12T08:31:39.526Z,5240
2023-02-12T08:32:39.777Z,4312
2023-02-12T08:33:40.379Z,3272
2023-02-12T08:34:40.892Z,3824
2023-02-12T08:35:41.123Z,4256
2023-02-12T08:36:41.890Z,3204
2023-02-12T08:37:42.809Z,2324
2023-02-12T08:38:43.469Z,2140
2023-02-12T08:39:44.681Z,2116
2023-02-12T08:40:46.133Z,2700
2023-02-12T08:41:45.805Z,3520
2023-02-12T08:42:46.594Z,3592
2023-02-12T08:43:47.811Z,4224
2023-02-12T08:44:48.048Z,5292
2023-02-12T08:45:48.485Z,5804
2023-02-12T08:46:48.438Z,4972
2023-02-12T08:47:48.933Z,4692
2023-02-12T08:48:49.682Z,5060
2023-02-12T08:49:49.933Z,5476
2023-02-12T08:50:50.164Z,6460
2023-02-12T08:51:50.514Z,6332
2023-02-12T08:52:51.381Z,6664
2023-02-12T08:53:51.640Z,6660
2023-02-12T08:54:52.132Z,6108
2023-02-12T08:55:52.058Z,5484
2023-02-12T08:56:52.505Z,5204
2023-02-12T08:57:52.134Z,6060
2023-02-12T08:58:52.774Z,7504
2023-02-12T08:59:53.713Z,6440
2023-02-12T09:00:54.969Z,5072
2023-02-12T09:01:54.380Z,6052
2023-02-12T09:02:55.220Z,6372
2023-02-12T09:03:56.526Z,5664
2023-02-12T09:04:56.534Z,4944
2023-02-12T09:05:58.060Z,3824
2023-02-12T09:06:57.931Z,3860
2023-02-12T09:07:59.143Z,4728
2023-02-12T09:08:59.105Z,3880
2023-02-12T09:10:00.313Z,2688
2023-02-12T09:11:00.573Z,2228
2023-02-12T09:12:00.569Z,2168
2023-02-12T09:13:01.787Z,2088
2023-02-12T09:14:02.702Z,2092
2023-02-12T09:15:02.937Z,2368
2023-02-12T09:16:03.835Z,3360
2023-02-12T09:17:03.429Z,4992
2023-02-12T09:18:04.399Z,5648
2023-02-12T09:19:05.728Z,6492
2023-02-12T09:20:05.400Z,8308
2023-02-12T09:21:06.341Z,9636
2023-02-12T09:22:08.004Z,9972
2023-02-12T09:23:06.959Z,9396
2023-02-12T09:24:06.908Z,8536
2023-02-12T09:25:08.145Z,8080
2023-02-12T09:26:09.085Z,8172
2023-02-12T09:27:09.546Z,8220
2023-02-12T09:28:09.384Z,8604
2023-02-12T09:29:09.694Z,7868
2023-02-12T09:30:09.654Z,5324
2023-02-12T09:31:11.278Z,6944
2023-02-12T09:32:10.607Z,10812
2023-02-12T09:33:11.256Z,12228
2023-02-12T09:34:12.583Z,11964
2023-02-12T09:35:12.882Z,11888
2023-02-12T09:36:13.819Z,12460
2023-02-12T09:37:13.895Z,13056
2023-02-12T09:38:14.093Z,13156
2023-02-12T09:39:15.049Z,12508
2023-02-12T09:40:15.996Z,10796
2023-02-12T09:41:16.206Z,8516
2023-02-12T09:42:16.169Z,7152
2023-02-12T09:43:17.106Z,8392
2023-02-12T09:44:18.235Z,10616
2023-02-12T09:45:19.173Z,11804
2023-02-12T09:46:20.092Z,12372
2023-02-12T09:47:20.527Z,12272
2023-02-12T09:48:20.932Z,11936
2023-02-12T09:49:22.542Z,11648
2023-02-12T09:50:22.197Z,11108
2023-02-12T09:51:23.117Z,10144
2023-02-12T09:52:24.334Z,7728
2023-02-12T09:53:25.585Z,6216
2023-02-12T09:54:25.533Z,6240
2023-02-12T09:55:26.222Z,5700
2023-02-12T09:56:27.470Z,6208
2023-02-12T09:57:27.246Z,7304
2023-02-12T09:58:28.466Z,8932
2023-02-12T09:59:28.684Z,10392
2023-02-12T10:00:29.001Z,11444
2023-02-12T10:01:30.687Z,12252
2023-02-12T10:02:31.035Z,12284
2023-02-12T10:03:31.991Z,11768
2023-02-12T10:04:32.858Z,11676
2023-02-12T10:05:32.792Z,11268
2023-02-12T10:06:33.009Z,9976
2023-02-12T10:07:33.757Z,9624
2023-02-12T10:08:36.504Z,10088
2023-02-12T10:09:34.437Z,9236
2023-02-12T10:10:35.672Z,8928
2023-02-12T10:11:36.647Z,9440
2023-02-12T10:12:37.158Z,9260
2023-02-12T10:14:38.121Z,9288
2023-02-12T10:15:39.657Z,9100
2023-02-12T10:16:42.098Z,8268
2023-02-12T10:17:39.890Z,8388
2023-02-12T10:18:41.157Z,9152
2023-02-12T10:19:41.751Z,9568
2023-02-12T10:20:45.735Z,10796
2023-02-12T10:21:42.976Z,11584
2023-02-12T10:23:02.564Z,12056
2023-02-12T10:23:43.880Z,12388
2023-02-12T10:24:44.450Z,12764
2023-02-12T10:25:44.408Z,12828
2023-02-12T10:26:44.966Z,12860
2023-02-12T10:27:45.014Z,12928
2023-02-12T10:28:46.136Z,13052
2023-02-12T10:29:46.368Z,13268
2023-02-12T10:30:47.688Z,13536
2023-02-12T10:31:48.496Z,13668
2023-02-12T10:32:48.313Z,13732
2023-02-12T10:33:50.240Z,13780
2023-02-12T10:34:55.574Z,13768
2023-02-12T10:35:49.838Z,13796
2023-02-12T10:36:50.124Z,13780
2023-02-12T10:37:51.483Z,13696
2023-02-12T10:38:52.664Z,13484
2023-02-12T10:39:52.319Z,13080
2023-02-12T10:40:53.269Z,12896
2023-02-12T10:41:53.792Z,13144
2023-02-12T10:42:53.748Z,13672
2023-02-12T10:43:54.690Z,14124
2023-02-12T10:44:55.026Z,14132
2023-02-12T10:45:56.025Z,13992
2023-02-12T10:46:56.367Z,14100
2023-02-12T10:47:57.616Z,14084
2023-02-12T10:48:57.533Z,14144
2023-02-12T10:49:58.231Z,14256
2023-02-12T10:50:58.215Z,14276
2023-02-12T10:51:59.165Z,14316
2023-02-12T10:53:00.455Z,14384
2023-02-12T10:54:01.183Z,14364
2023-02-12T10:55:01.428Z,14420
2023-02-12T10:56:03.218Z,14528
2023-02-12T10:57:02.145Z,14524
2023-02-12T10:58:02.925Z,14748
2023-02-12T10:59:04.175Z,14576
2023-02-12T11:00:05.127Z,14392
2023-02-12T11:01:04.843Z,14424
2023-02-12T11:02:06.005Z,14264
2023-02-12T11:03:06.550Z,14108
2023-02-12T11:04:07.229Z,13264
2023-02-12T11:05:07.814Z,12548
2023-02-12T11:06:08.820Z,12456
2023-02-12T11:07:09.404Z,12840
2023-02-12T11:08:09.179Z,12900
2023-02-12T11:09:08.899Z,12816
2023-02-12T11:10:09.881Z,13080
2023-02-12T11:11:10.806Z,13224
2023-02-12T11:12:11.318Z,12940
2023-02-12T11:13:11.259Z,12732
2023-02-12T11:14:11.954Z,12344
2023-02-12T11:15:12.879Z,11304
2023-02-12T11:16:14.550Z,10252
2023-02-12T11:17:14.014Z,10156
2023-02-12T11:18:16.731Z,10452
2023-02-12T11:19:15.999Z,10776
2023-02-12T11:20:16.747Z,10896
2023-02-12T11:21:17.188Z,11192
2023-02-12T11:22:17.700Z,11008
2023-02-12T11:23:17.925Z,10308
2023-02-12T11:24:18.208Z,10604
2023-02-12T11:25:18.436Z,10892
2023-02-12T11:26:18.395Z,10752
2023-02-12T11:27:19.383Z,9428
2023-02-12T11:28:21.225Z,7880
2023-02-12T11:29:21.831Z,6456
2023-02-12T11:30:21.973Z,7704
2023-02-12T11:31:22.761Z,7988
2023-02-12T11:32:23.193Z,7532
2023-02-12T11:33:23.161Z,7636
2023-02-12T11:34:24.113Z,6916
2023-02-12T11:35:24.434Z,5224
2023-02-12T11:36:25.050Z,4092
2023-02-12T11:37:24.994Z,4572
2023-02-12T11:38:28.569Z,4016
2023-02-12T11:39:26.773Z,4428
2023-02-12T11:40:27.437Z,8200
2023-02-12T11:41:28.650Z,9984
2023-02-12T11:42:29.337Z,9184
2023-02-12T11:43:30.583Z,8752
2023-02-12T11:44:31.525Z,9208
2023-02-12T11:45:31.732Z,8856
2023-02-12T11:46:32.905Z,6304
2023-02-12T11:47:33.677Z,6208
2023-02-12T11:48:34.413Z,6848
2023-02-12T11:49:35.362Z,4408
2023-02-12T11:50:36.591Z,3948
2023-02-12T11:51:36.869Z,5884
2023-02-12T11:52:37.536Z,6688
2023-02-12T11:53:38.195Z,5032
2023-02-12T11:54:39.441Z,4816
2023-02-12T11:55:39.728Z,5840
2023-02-12T11:56:40.086Z,5800
2023-02-12T11:57:41.018Z,4452
2023-02-12T11:58:41.835Z,4720
2023-02-12T11:59:43.069Z,5856
2023-02-12T12:00:44.132Z,6164
2023-02-12T12:01:44.714Z,6920
2023-02-12T12:02:44.761Z,6944
2023-02-12T12:03:45.166Z,5884
2023-02-12T12:04:46.087Z,5352
2023-02-12T12:05:46.706Z,6128
2023-02-12T12:06:46.986Z,7236
2023-02-12T12:07:47.253Z,7264
2023-02-12T12:08:47.797Z,7072
2023-02-12T12:09:49.312Z,7308
2023-02-12T12:10:49.246Z,7668
2023-02-12T12:11:50.476Z,8236
2023-02-12T12:12:50.846Z,7884
2023-02-12T12:13:51.264Z,7260
2023-02-12T12:14:52.493Z,7460
2023-02-12T12:15:52.872Z,7316
2023-02-12T12:16:54.356Z,6920
2023-02-12T12:17:55.572Z,7372
2023-02-12T12:18:56.689Z,8364
2023-02-12T12:19:57.405Z,8848
2023-02-12T12:20:59.023Z,8916
2023-02-12T12:21:59.589Z,9136
2023-02-12T12:22:59.519Z,9200
2023-02-12T12:24:01.021Z,9148
2023-02-12T12:25:01.246Z,8744
2023-02-12T12:26:01.825Z,7792
2023-02-12T12:27:02.180Z,6224
2023-02-12T12:28:02.418Z,5900
2023-02-12T12:29:03.018Z,6616
2023-02-12T12:30:02.991Z,6648
2023-02-12T12:31:03.440Z,6248
2023-02-12T12:32:04.115Z,6128
2023-02-12T12:33:04.363Z,6216
2023-02-12T12:34:04.578Z,5800
2023-02-12T12:35:05.525Z,5292
2023-02-12T12:36:06.422Z,5396
2023-02-12T12:37:05.695Z,5820
2023-02-12T12:38:05.925Z,5852
2023-02-12T12:39:06.742Z,6184
2023-02-12T12:40:08.026Z,6608
2023-02-12T12:41:08.268Z,6720
2023-02-12T12:42:08.494Z,6408
2023-02-12T12:43:08.478Z,6492
2023-02-12T12:44:08.693Z,6720
2023-02-12T12:45:09.628Z,6200
2023-02-12T12:46:11.399Z,5792
2023-02-12T12:47:10.451Z,6096
2023-02-12T12:48:11.390Z,6004
2023-02-12T12:49:13.055Z,4912
2023-02-12T12:50:13.004Z,4496
2023-02-12T12:51:14.338Z,4844
2023-02-12T12:52:15.537Z,5188
2023-02-12T12:53:15.069Z,4900
2023-02-12T12:54:15.006Z,4692
2023-02-12T12:55:14.954Z,5020
2023-02-12T12:56:15.857Z,5848
2023-02-12T12:57:16.393Z,6208
2023-02-12T12:58:16.909Z,6248
2023-02-12T12:59:17.202Z,6408
2023-02-12T13:00:19.705Z,6272
2023-02-12T13:01:18.255Z,5884
2023-02-12T13:02:19.121Z,6048
2023-02-12T13:03:19.450Z,6336
2023-02-12T13:04:19.692Z,6300
2023-02-12T13:05:20.128Z,6508
2023-02-12T13:06:21.614Z,6492
2023-02-12T13:07:21.936Z,6160
2023-02-12T13:08:22.318Z,5584
2023-02-12T13:09:22.415Z,4604
2023-02-12T13:10:22.527Z,4652
2023-02-12T13:11:22.760Z,5028
2023-02-12T13:12:23.396Z,5168
2023-02-12T13:13:23.897Z,5256
2023-02-12T13:14:23.844Z,5112
2023-02-12T13:15:25.357Z,5320
2023-02-12T13:16:25.887Z,4872
2023-02-12T13:17:25.900Z,5480
2023-02-12T13:18:26.558Z,5976
2023-02-12T13:19:27.268Z,6448
2023-02-12T13:20:26.900Z,6504
2023-02-12T13:21:28.205Z,6416
2023-02-12T13:22:31.644Z,5736
2023-02-12T13:23:28.596Z,5676
2023-02-12T13:24:29.601Z,6004
2023-02-12T13:25:30.828Z,6340
2023-02-12T13:26:31.059Z,6260
2023-02-12T13:27:33.306Z,6184
2023-02-12T13:28:32.377Z,6088
2023-02-12T13:29:33.549Z,5952
2023-02-12T13:30:34.114Z,5948
2023-02-12T13:31:44.330Z,6088
2023-02-12T13:32:34.662Z,6200
2023-02-12T13:33:36.792Z,6148
2023-02-12T13:34:36.040Z,5624
2023-02-12T13:35:36.271Z,5588
2023-02-12T13:36:37.282Z,5684
2023-02-12T13:37:37.582Z,5676
2023-02-12T13:38:37.519Z,5984
2023-02-12T13:39:40.194Z,5932
2023-02-12T13:40:38.913Z,5948
2023-02-12T13:41:39.823Z,6328
2023-02-12T13:42:40.321Z,6620
2023-02-12T13:43:41.042Z,6716
2023-02-12T13:44:42.282Z,6756
2023-02-12T13:45:42.202Z,6724
2023-02-12T13:46:42.912Z,6664
2023-02-12T13:47:42.588Z,6560
2023-02-12T13:48:43.814Z,6468
2023-02-12T13:49:43.841Z,6276
2023-02-12T13:50:44.771Z,6240
2023-02-12T13:51:45.374Z,6160
2023-02-12T13:52:45.319Z,6284
2023-02-12T13:53:46.265Z,6260
2023-02-12T13:54:47.776Z,6224
2023-02-12T13:55:48.275Z,6196
2023-02-12T13:56:48.479Z,6060
2023-02-12T13:57:48.399Z,5928
2023-02-12T13:58:49.055Z,5840
2023-02-12T13:59:50.136Z,5772
2023-02-12T14:00:50.080Z,5684
2023-02-12T14:01:53.521Z,5580
2023-02-12T14:02:51.424Z,5516
2023-02-12T14:03:51.667Z,5496
2023-02-12T14:04:51.892Z,5456
2023-02-12T14:05:52.102Z,5368
2023-02-12T14:06:52.540Z,5404
2023-02-12T14:07:52.410Z,5296
2023-02-12T14:08:52.781Z,5060
2023-02-12T14:09:53.798Z,4868
2023-02-12T14:10:53.752Z,4560
2023-02-12T14:11:54.681Z,4332
2023-02-12T14:12:55.944Z,4316
2023-02-12T14:13:55.886Z,4416
2023-02-12T14:14:56.828Z,4352
2023-02-12T14:15:58.426Z,4348
2023-02-12T14:16:58.534Z,4364
2023-02-12T14:18:01.311Z,4328
2023-02-12T14:18:58.960Z,4080
2023-02-12T14:20:00.129Z,3864
2023-02-12T14:21:00.062Z,4028
2023-02-12T14:22:01.368Z,4136
2023-02-12T14:23:01.642Z,4112
2023-02-12T14:24:01.978Z,4036
2023-02-12T14:25:02.666Z,4004
2023-02-12T14:26:04.592Z,4012
2023-02-12T14:27:04.527Z,4040
2023-02-12T14:28:05.895Z,4040
2023-02-12T14:29:05.913Z,4032
2023-02-12T14:30:07.026Z,3976
2023-02-12T14:31:07.868Z,3732
2023-02-12T14:32:08.148Z,3688
2023-02-12T14:33:08.655Z,3768
2023-02-12T14:34:08.630Z,3824
2023-02-12T14:35:09.842Z,3780
2023-02-12T14:36:10.522Z,3760
2023-02-12T14:37:12.108Z,3820
2023-02-12T14:38:12.463Z,3872
2023-02-12T14:39:12.733Z,3852
2023-02-12T14:40:12.811Z,3824
2023-02-12T14:41:13.756Z,3772
2023-02-12T14:42:13.726Z,3704
2023-02-12T14:43:14.959Z,3556
2023-02-12T14:44:16.170Z,3500
2023-02-12T14:45:16.408Z,3568
2023-02-12T14:46:16.452Z,3524
2023-02-12T14:47:16.213Z,3484
2023-02-12T14:48:17.458Z,3432
2023-02-12T14:49:18.552Z,3376
2023-02-12T14:50:19.028Z,3324
2023-02-12T14:51:19.978Z,3284
2023-02-12T14:52:20.650Z,3240
2023-02-12T14:53:21.205Z,3192
2023-02-12T14:54:21.130Z,3148
2023-02-12T14:55:22.368Z,3108
2023-02-12T14:56:22.307Z,3088
2023-02-12T14:57:23.263Z,3056
2023-02-12T14:58:24.274Z,3004
2023-02-12T14:59:25.735Z,2960
2023-02-12T15:00:25.846Z,2912
2023-02-12T15:01:26.628Z,2872
2023-02-12T15:02:26.712Z,2828
2023-02-12T15:03:27.957Z,2780
2023-02-12T15:04:28.482Z,2752
2023-02-12T15:05:28.714Z,2708
2023-02-12T15:06:29.946Z,2664
2023-02-12T15:07:30.994Z,2620
2023-02-12T15:08:31.595Z,2580
2023-02-12T15:09:32.565Z,2540
2023-02-12T15:10:32.574Z,2500
2023-02-12T15:11:32.813Z,2456
2023-02-12T15:12:32.754Z,2412
2023-02-12T15:13:33.411Z,2372
2023-02-12T15:14:33.380Z,2340
2023-02-12T15:15:34.894Z,2312
2023-02-12T15:16:35.588Z,2284
2023-02-12T15:17:35.293Z,2236
2023-02-12T15:18:36.250Z,2192
2023-02-12T15:19:37.016Z,2128
2023-02-12T15:20:37.782Z,2072
2023-02-12T15:21:38.453Z,2024
2023-02-12T15:22:39.483Z,1980
2023-02-12T15:23:40.044Z,1948
2023-02-12T15:24:40.572Z,1908
2023-02-12T15:25:41.252Z,1868
2023-02-12T15:26:41.769Z,1828
2023-02-12T15:27:41.768Z,1780
2023-02-12T15:28:42.390Z,1716
2023-02-12T15:29:42.705Z,1616
2023-02-12T15:30:43.718Z,1492
2023-02-12T15:31:45.303Z,1352
2023-02-12T15:32:45.396Z,1120
2023-02-12T15:33:45.046Z,888
2023-02-12T15:34:46.553Z,796
2023-02-12T15:35:47.478Z,804
2023-02-12T15:36:47.822Z,884
2023-02-12T15:37:48.845Z,952
2023-02-12T15:38:49.599Z,968
2023-02-12T15:39:49.824Z,1036
2023-02-12T15:40:50.898Z,1060
2023-02-12T15:41:51.929Z,1008
2023-02-12T15:42:51.850Z,976
2023-02-12T15:43:51.773Z,996
2023-02-12T15:44:53.083Z,1020
2023-02-12T15:45:53.855Z,996
2023-02-12T15:46:54.077Z,956
2023-02-12T15:47:55.640Z,920
2023-02-12T15:48:55.341Z,876
2023-02-12T15:49:56.254Z,824
2023-02-12T15:50:57.345Z,776
2023-02-12T15:51:57.552Z,744
2023-02-12T15:52:58.134Z,696
2023-02-12T15:53:58.461Z,640
2023-02-12T15:54:59.107Z,596
2023-02-12T15:56:01.223Z,536
2023-02-12T15:57:00.600Z,468
2023-02-12T15:58:01.814Z,424
2023-02-12T15:59:02.459Z,400
2023-02-12T16:00:02.391Z,392
2023-02-12T16:01:03.043Z,376
2023-02-12T16:02:03.588Z,356
2023-02-12T16:03:03.338Z,308
2023-02-12T16:04:04.433Z,252
2023-02-12T16:05:05.772Z,232
2023-02-12T16:06:06.159Z,220
2023-02-12T16:07:06.173Z,216
2023-02-12T16:08:06.922Z,204
2023-02-12T16:09:07.174Z,200
2023-02-12T16:10:08.106Z,188
2023-02-12T16:11:09.415Z,184
2023-02-12T16:12:09.771Z,176
2023-02-12T16:13:10.263Z,168
2023-02-12T16:14:09.906Z,160
2023-02-12T16:15:10.912Z,152
2023-02-12T16:16:11.309Z,144
2023-02-12T16:17:11.597Z,136
2023-02-12T16:18:12.595Z,132
2023-02-12T16:19:12.828Z,124
2023-02-12T16:20:13.154Z,116
2023-02-12T16:21:13.279Z,112
2023-02-12T16:22:14.549Z,104
2023-02-12T16:23:16.067Z,100
2023-02-12T16:24:15.597Z,92
2023-02-12T16:25:16.241Z,84
2023-02-12T16:26:17.561Z,80
2023-02-12T16:27:16.936Z,72
2023-02-12T16:28:18.122Z,68
2023-02-12T16:29:18.373Z,64
2023-02-12T16:30:18.893Z,60
2023-02-12T16:31:19.158Z,56
2023-02-12T16:32:19.287Z,52
2023-02-12T16:33:20.204Z,44
2023-02-12T16:34:21.428Z,40
2023-02-12T16:35:21.349Z,40
2023-02-12T16:36:21.577Z,32
2023-02-12T16:37:22.646Z,32
2023-02-12T16:38:23.961Z,24
2023-02-12T16:39:24.258Z,24
2023-02-12T16:40:25.177Z,20
2023-02-12T16:41:25.869Z,20
2023-02-12T16:42:26.367Z,16
2023-02-12T16:43:26.575Z,12
2023-02-12T16:44:27.092Z,12
2023-02-12T16:45:26.952Z,8
2023-02-12T16:46:27.985Z,8
2023-02-12T16:47:29.204Z,8
2023-02-12T16:48:29.714Z,8
2023-02-12T16:49:29.370Z,4
2023-02-12T16:50:30.376Z,4
2023-02-12T16:51:31.260Z,4
2023-02-12T16:52:32.247Z,4
2023-02-12T16:53:33.566Z,4
2023-02-12T16:54:34.110Z,0
2023-02-12T16:55:34.370Z,4
2023-02-12T16:56:34.893Z,4
2023-02-12T16:57:34.855Z,0
2023-02-12T16:58:36.063Z,0
2023-02-12T16:59:36.315Z,4
2023-02-12T17:00:37.420Z,0
2023-02-12T17:01:37.610Z,0
2023-02-12T17:02:37.603Z,0
2023-02-12T17:03:39.383Z,0
2023-02-12T17:04:39.557Z,0
2023-02-12T17:05:40.501Z,0
2023-02-12T17:06:40.449Z,0
2023-02-12T17:07:41.381Z,0
2023-02-12T17:08:42.378Z,0
2023-02-12T17:09:42.907Z,0
2023-02-12T17:10:43.537Z,0
2023-02-12T17:11:44.560Z,0
2023-02-12T17:12:44.185Z,0
2023-02-12T17:13:45.465Z,0
2023-02-12T17:14:45.817Z,0
2023-02-12T17:15:46.736Z,0
2023-02-12T17:16:47.580Z,0
2023-02-12T17:17:48.577Z,0
2023-02-12T17:18:49.214Z,0
2023-02-12T17:19:49.145Z,0
2023-02-12T17:20:48.783Z,0
2023-02-12T17:21:49.662Z,0
2023-02-12T17:22:50.012Z,0
2023-02-12T17:23:52.708Z,0
2023-02-12T17:24:52.234Z,0
2023-02-12T17:25:52.434Z,0
2023-02-12T17:26:52.648Z,0
2023-02-12T17:27:54.177Z,0
2023-02-12T17:28:54.743Z,0
2023-02-12T17:29:54.673Z,0
2023-02-12T17:30:55.406Z,0
2023-02-12T17:31:56.337Z,0
2023-02-12T17:32:57.213Z,0
2023-02-12T17:33:57.716Z,0
2023-02-12T17:35:00.451Z,0
2023-02-12T17:35:58.669Z,0
2023-02-12T17:36:58.929Z,0
2023-02-12T17:37:59.378Z,0
2023-02-12T17:39:00.383Z,0
2023-02-12T17:40:00.387Z,0
2023-02-12T17:41:02.571Z,0
2023-02-12T17:42:02.339Z,0
2023-02-12T17:43:03.304Z,0
2023-02-12T17:44:04.737Z,0
2023-02-12T17:45:04.702Z,0
2023-02-12T17:46:06.144Z,0
2023-02-12T17:47:05.436Z,0
2023-02-12T17:48:06.068Z,0
2023-02-12T17:49:06.267Z,0
2023-02-12T17:50:06.510Z,0
2023-02-12T17:51:07.163Z,0
2023-02-12T17:52:07.639Z,0
2023-02-12T17:53:07.859Z,0
2023-02-12T17:54:08.610Z,0
2023-02-12T17:55:08.865Z,0
2023-02-12T17:56:09.067Z,0
2023-02-12T17:57:10.499Z,0
2023-02-12T17:58:10.529Z,0
2023-02-12T17:59:10.946Z,0
2023-02-12T18:00:11.874Z,0
2023-02-12T18:01:12.807Z,0
2023-02-12T18:02:12.998Z,0
2023-02-12T18:03:13.979Z,0
2023-02-12T18:04:14.745Z,0
2023-02-12T18:05:15.093Z,0
2023-02-12T18:06:15.024Z,0
2023-02-12T18:07:16.210Z,0
2023-02-12T18:08:16.400Z,0
2023-02-12T18:09:16.696Z,0
2023-02-12T18:10:17.644Z,0
2023-02-12T18:11:17.583Z,0
2023-02-12T18:12:18.565Z,0
2023-02-12T18:13:18.770Z,0
2023-02-12T18:14:19.992Z,0
2023-02-12T18:15:20.200Z,0
2023-02-12T18:16:20.327Z,0
2023-02-12T18:17:21.616Z,0
2023-02-12T18:18:21.824Z,0
2023-02-12T18:19:21.749Z,0
2023-02-12T18:20:21.673Z,0
2023-02-12T18:21:22.908Z,0
2023-02-12T18:22:23.666Z,0
2023-02-12T18:23:24.857Z,0
2023-02-12T18:24:25.462Z,0
2023-02-12T18:25:26.014Z,0
2023-02-12T18:26:26.493Z,0
2023-02-12T18:27:26.869Z,0
2023-02-12T18:28:27.975Z,0
2023-02-12T18:29:28.304Z,0
2023-02-12T18:30:28.336Z,0
2023-02-12T18:31:29.125Z,0
2023-02-12T18:32:29.629Z,0
2023-02-12T18:33:30.116Z,0
2023-02-12T18:34:30.371Z,0
2023-02-12T18:35:30.299Z,0
2023-02-12T18:36:30.928Z,0
2023-02-12T18:37:31.527Z,0
2023-02-12T18:38:31.724Z,0
2023-02-12T18:39:31.728Z,0
2023-02-12T18:40:32.072Z,0
2023-02-12T18:41:32.456Z,0
2023-02-12T18:42:33.547Z,0
2023-02-12T18:43:36.178Z,0
2023-02-12T18:44:34.461Z,0
2023-02-12T18:45:34.681Z,0
2023-02-12T18:46:35.552Z,0
2023-02-12T18:47:35.827Z,0
2023-02-12T18:48:36.749Z,0
2023-02-12T18:49:36.795Z,0
2023-02-12T18:50:37.432Z,0
2023-02-12T18:51:37.353Z,0
2023-02-12T18:52:37.802Z,0
2023-02-12T18:53:39.020Z,0
2023-02-12T18:54:40.047Z,0
2023-02-12T18:55:40.588Z,0
2023-02-12T18:56:40.611Z,0
2023-02-12T18:57:41.235Z,0
2023-02-12T18:58:42.165Z,0
2023-02-12T18:59:42.136Z,0
2023-02-12T19:00:43.708Z,0
2023-02-12T19:01:44.005Z,0
2023-02-12T19:02:44.570Z,0
2023-02-12T19:03:45.006Z,0
2023-02-12T19:04:45.697Z,0
2023-02-12T19:05:46.024Z,0
2023-02-12T19:06:46.305Z,0
2023-02-12T19:07:46.940Z,0
2023-02-12T19:08:46.857Z,0
2023-02-12T19:09:48.367Z,0
2023-02-12T19:10:48.912Z,0
2023-02-12T19:11:49.356Z,0
2023-02-12T19:12:50.427Z,0
2023-02-12T19:13:50.551Z,0
2023-02-12T19:14:50.894Z,0
2023-02-12T19:15:51.368Z,0
2023-02-12T19:16:50.823Z,0
2023-02-12T19:17:51.757Z,0
2023-02-12T19:18:51.676Z,0
2023-02-12T19:19:52.614Z,0
2023-02-12T19:20:52.807Z,0
2023-02-12T19:21:53.268Z,0
2023-02-12T19:22:56.410Z,0
2023-02-12T19:23:55.628Z,0
2023-02-12T19:24:58.710Z,0
2023-02-12T19:25:56.291Z,0
2023-02-12T19:26:55.944Z,0
2023-02-12T19:27:56.861Z,0
2023-02-12T19:28:57.377Z,0
2023-02-12T19:29:57.596Z,0
2023-02-12T19:30:59.067Z,0
2023-02-12T19:31:59.165Z,0
2023-02-12T19:32:59.076Z,0
2023-02-12T19:34:00.285Z,0
2023-02-12T19:35:01.237Z,0
2023-02-12T19:36:02.211Z,0
2023-02-12T19:37:02.736Z,0
2023-02-12T19:38:02.749Z,0
2023-02-12T19:39:03.662Z,0
2023-02-12T19:40:04.956Z,0
2023-02-12T19:41:05.797Z,0
2023-02-12T19:42:06.050Z,0
2023-02-12T19:43:05.542Z,0
2023-02-12T19:44:06.466Z,0
2023-02-12T19:45:06.994Z,0
2023-02-12T19:46:07.672Z,0
2023-02-12T19:47:08.219Z,0
2023-02-12T19:48:07.857Z,0
2023-02-12T19:49:08.785Z,0
2023-02-12T19:50:09.866Z,0
2023-02-12T19:51:10.373Z,0
2023-02-12T19:52:10.294Z,0
2023-02-12T19:53:10.578Z,0
2023-02-12T19:54:11.090Z,0
2023-02-12T19:55:11.098Z,0
2023-02-12T19:56:11.793Z,0
2023-02-12T19:57:13.447Z,0
2023-02-12T19:58:11.851Z,0
2023-02-12T19:59:13.337Z,0
2023-02-12T20:00:13.274Z,0
2023-02-12T20:01:13.263Z,0
2023-02-12T20:02:14.268Z,0
2023-02-12T20:03:14.705Z,0
2023-02-12T20:04:15.628Z,0
2023-02-12T20:05:16.552Z,0
2023-02-12T20:06:16.177Z,0
2023-02-12T20:07:16.824Z,0
2023-02-12T20:08:17.030Z,0
2023-02-12T20:09:16.991Z,0
2023-02-12T20:10:18.526Z,0
2023-02-12T20:11:18.800Z,0
2023-02-12T20:12:18.724Z,0
2023-02-12T20:13:19.714Z,0
2023-02-12T20:14:19.393Z,0
2023-02-12T20:15:20.600Z,0
2023-02-12T20:16:20.743Z,0
2023-02-12T20:17:21.682Z,0
2023-02-12T20:18:22.047Z,0
2023-02-12T20:19:23.578Z,0
2023-02-12T20:20:24.165Z,0
2023-02-12T20:21:24.375Z,0
2023-02-12T20:22:25.300Z,0
2023-02-12T20:23:25.919Z,0
2023-02-12T20:24:26.404Z,0
2023-02-12T20:25:26.712Z,0
2023-02-12T20:26:26.969Z,0
2023-02-12T20:27:27.475Z,0
2023-02-12T20:28:27.897Z,0
2023-02-12T20:29:28.207Z,0
2023-02-12T20:30:28.149Z,0
2023-02-12T20:31:29.469Z,0
2023-02-12T20:32:29.708Z,0
2023-02-12T20:33:30.130Z,0
2023-02-12T20:34:34.707Z,0
2023-02-12T20:35:30.772Z,0
2023-02-12T20:36:30.692Z,0
2023-02-12T20:37:30.893Z,0
2023-02-12T20:38:31.400Z,0
2023-02-12T20:39:31.053Z,0
2023-02-12T20:40:32.627Z,0
2023-02-12T20:41:32.949Z,0
2023-02-12T20:42:33.150Z,0
2023-02-12T20:43:33.297Z,0
2023-02-12T20:44:33.812Z,0
2023-02-12T20:45:34.025Z,0
2023-02-12T20:46:34.502Z,0
2023-02-12T20:47:35.172Z,0
2023-02-12T20:48:36.381Z,0
2023-02-12T20:49:36.119Z,0
2023-02-12T20:50:36.373Z,0
2023-02-12T20:51:37.566Z,0
2023-02-12T20:52:38.091Z,0
2023-02-12T20:53:38.530Z,0
2023-02-12T20:54:38.853Z,0
2023-02-12T20:55:40.600Z,0
2023-02-12T20:56:41.217Z,0
2023-02-12T20:57:41.412Z,0
2023-02-12T20:58:41.655Z,0
2023-02-12T20:59:42.611Z,0
2023-02-12T21:00:43.229Z,0
2023-02-12T21:01:44.443Z,0
2023-02-12T21:02:45.021Z,0
2023-02-12T21:03:45.842Z,0
2023-02-12T21:04:46.482Z,0
2023-02-12T21:05:46.667Z,0
2023-02-12T21:06:47.913Z,0
2023-02-12T21:07:47.840Z,0
2023-02-12T21:08:48.809Z,0
2023-02-12T21:09:50.021Z,0
2023-02-12T21:10:50.306Z,0
2023-02-12T21:11:50.627Z,0
2023-02-12T21:12:51.870Z,0
2023-02-12T21:14:21.100Z,0
2023-02-12T21:14:52.305Z,0
2023-02-12T21:15:54.435Z,0
2023-02-12T21:16:54.024Z,0
2023-02-12T21:17:55.238Z,0
2023-02-12T21:18:55.449Z,0
2023-02-12T21:19:55.667Z,0
2023-02-12T21:20:56.593Z,0
2023-02-12T21:21:57.160Z,0
2023-02-12T21:22:57.821Z,0
2023-02-12T21:24:02.097Z,0
2023-02-12T21:24:58.737Z,0
2023-02-12T21:26:00.118Z,0
2023-02-12T21:27:00.098Z,0
2023-02-12T21:28:00.045Z,0
2023-02-12T21:29:01.087Z,0
2023-02-12T21:30:02.280Z,0
2023-02-12T21:31:02.566Z,0
2023-02-12T21:32:03.301Z,0
2023-02-12T21:33:03.483Z,0
2023-02-12T21:34:03.765Z,0
2023-02-12T21:35:04.274Z,0
2023-02-12T21:36:04.987Z,0
2023-02-12T21:37:04.952Z,0
2023-02-12T21:38:05.877Z,0
2023-02-12T21:39:06.375Z,0
2023-02-12T21:40:06.584Z,0
2023-02-12T21:41:07.149Z,0
2023-02-12T21:42:07.410Z,0
2023-02-12T21:43:08.317Z,0
2023-02-12T21:44:09.371Z,0
2023-02-12T21:45:10.674Z,0